createdAt,value
2018-05-06T00:00:28.795Z,1026.86
2018-05-06T00:01:27.590Z,1026.90
2018-05-06T00:02:27.272Z,1026.92
2018-05-06T00:03:27.153Z,1026.91
2018-05-06T00:04:47.397Z,1026.88
2018-05-06T00:06:08.861Z,1026.88
2018-05-06T00:07:09.027Z,1026.84
2018-05-06T00:08:08.917Z,1026.86
2018-05-06T00:09:30.600Z,1026.81
2018-05-06T00:10:30.173Z,1026.83
2018-05-06T00:11:30.066Z,1026.87
2018-05-06T00:12:29.769Z,1026.87
2018-05-06T00:13:30.827Z,1026.88
2018-05-06T00:14:30.574Z,1026.91
2018-05-06T00:15:30.678Z,1026.90
2018-05-06T00:16:30.482Z,1026.90
2018-05-06T00:17:30.344Z,1026.91
2018-05-06T00:18:30.504Z,1026.88
2018-05-06T00:19:30.223Z,1026.92
2018-05-06T00:20:30.309Z,1026.88
2018-05-06T00:21:30.304Z,1026.94
2018-05-06T00:22:30.828Z,1026.89
2018-05-06T00:23:31.361Z,1026.89
2018-05-06T00:24:30.121Z,1026.88
2018-05-06T00:25:31.103Z,1026.90
2018-05-06T00:26:30.039Z,1026.90
2018-05-06T00:27:31.019Z,1026.89
2018-05-06T00:28:30.113Z,1026.90
2018-05-06T00:29:30.132Z,1026.89
2018-05-06T00:30:30.106Z,1026.88
2018-05-06T00:31:29.630Z,1026.89
2018-05-06T00:32:30.586Z,1026.88
2018-05-06T00:33:30.403Z,1026.90
2018-05-06T00:34:30.340Z,1026.89
2018-05-06T00:35:29.988Z,1026.85
2018-05-06T00:36:29.705Z,1026.84
2018-05-06T00:37:30.715Z,1026.85
2018-05-06T00:38:30.454Z,1026.86
2018-05-06T00:39:29.973Z,1026.81
2018-05-06T00:40:30.190Z,1026.83
2018-05-06T00:41:29.753Z,1026.78
2018-05-06T00:42:30.400Z,1026.82
2018-05-06T00:43:30.412Z,1026.80
2018-05-06T00:44:30.374Z,1026.81
2018-05-06T00:45:30.041Z,1026.86
2018-05-06T00:46:29.856Z,1026.83
2018-05-06T00:47:51.386Z,1026.79
2018-05-06T00:48:51.883Z,1026.80
2018-05-06T00:49:51.645Z,1026.79
2018-05-06T00:50:51.382Z,1026.83
2018-05-06T00:51:52.245Z,1026.82
2018-05-06T00:52:51.830Z,1026.84
2018-05-06T00:53:51.940Z,1026.79
2018-05-06T00:54:51.993Z,1026.82
2018-05-06T00:55:51.877Z,1026.84
2018-05-06T00:56:51.426Z,1026.81
2018-05-06T00:57:52.189Z,1026.76
2018-05-06T00:58:51.681Z,1026.76
2018-05-06T00:59:51.487Z,1026.74
2018-05-06T01:00:51.323Z,1026.72
2018-05-06T01:02:12.410Z,1026.72
2018-05-06T01:03:12.998Z,1026.77
2018-05-06T01:04:12.620Z,1026.73
2018-05-06T01:05:13.898Z,1026.76
2018-05-06T01:06:32.734Z,1026.72
2018-05-06T01:07:33.865Z,1026.72
2018-05-06T01:08:34.028Z,1026.69
2018-05-06T01:09:56.494Z,1026.70
2018-05-06T01:10:57.222Z,1026.72
2018-05-06T01:12:17.294Z,1026.67
2018-05-06T01:13:18.596Z,1026.65
2018-05-06T01:14:18.430Z,1026.66
2018-05-06T01:15:18.310Z,1026.65
2018-05-06T01:16:17.893Z,1026.66
2018-05-06T01:17:17.799Z,1026.69
2018-05-06T01:18:38.637Z,1026.70
2018-05-06T01:19:38.741Z,1026.75
2018-05-06T01:20:38.142Z,1026.74
2018-05-06T01:21:39.182Z,1026.77
2018-05-06T01:22:38.666Z,1026.80
2018-05-06T01:23:38.850Z,1026.80
2018-05-06T01:24:58.591Z,1026.84
2018-05-06T01:25:59.748Z,1026.84
2018-05-06T01:26:59.595Z,1026.86
2018-05-06T01:27:59.465Z,1026.89
2018-05-06T01:28:59.314Z,1026.92
2018-05-06T01:29:59.250Z,1026.93
2018-05-06T01:30:58.951Z,1026.93
2018-05-06T01:31:59.889Z,1026.91
2018-05-06T01:32:59.662Z,1026.90
2018-05-06T01:33:59.807Z,1026.93
2018-05-06T01:34:59.726Z,1026.97
2018-05-06T01:35:59.350Z,1026.94
2018-05-06T01:36:58.801Z,1026.96
2018-05-06T01:37:59.849Z,1026.96
2018-05-06T01:38:59.915Z,1026.90
2018-05-06T01:39:59.656Z,1026.91
2018-05-06T01:40:59.513Z,1026.88
2018-05-06T01:41:59.216Z,1026.90
2018-05-06T01:42:59.158Z,1026.86
2018-05-06T01:44:19.450Z,1026.85
2018-05-06T01:45:40.590Z,1026.87
2018-05-06T01:47:01.421Z,1026.86
2018-05-06T01:48:02.280Z,1026.84
2018-05-06T01:49:02.044Z,1026.86
2018-05-06T01:50:01.942Z,1026.88
2018-05-06T01:51:02.050Z,1026.88
2018-05-06T01:52:01.999Z,1026.87
2018-05-06T01:53:01.522Z,1026.85
2018-05-06T01:54:22.329Z,1026.82
2018-05-06T01:55:23.252Z,1026.83
2018-05-06T01:56:23.142Z,1026.86
2018-05-06T01:58:03.649Z,1026.83
2018-05-06T01:59:04.441Z,1026.83
2018-05-06T02:00:04.052Z,1026.81
2018-05-06T02:01:03.780Z,1026.80
2018-05-06T02:02:04.532Z,1026.80
2018-05-06T02:03:04.154Z,1026.82
2018-05-06T02:04:24.358Z,1026.81
2018-05-06T02:05:45.627Z,1026.84
2018-05-06T02:06:46.236Z,1026.85
2018-05-06T02:07:45.858Z,1026.84
2018-05-06T02:08:45.441Z,1026.82
2018-05-06T02:09:46.103Z,1026.86
2018-05-06T02:10:46.072Z,1026.85
2018-05-06T02:11:45.752Z,1026.86
2018-05-06T02:12:46.623Z,1026.85
2018-05-06T02:13:46.397Z,1026.83
2018-05-06T02:14:46.350Z,1026.81
2018-05-06T02:15:46.287Z,1026.81
2018-05-06T02:16:46.186Z,1026.79
2018-05-06T02:18:06.430Z,1026.78
2018-05-06T02:19:06.926Z,1026.81
2018-05-06T02:20:06.417Z,1026.82
2018-05-06T02:22:08.210Z,1026.83
2018-05-06T02:23:29.407Z,1026.85
2018-05-06T02:24:30.373Z,1026.87
2018-05-06T02:25:30.947Z,1026.87
2018-05-06T02:26:29.511Z,1026.84
2018-05-06T02:27:29.173Z,1026.79
2018-05-06T02:28:29.658Z,1026.82
2018-05-06T02:29:29.455Z,1026.83
2018-05-06T02:30:30.349Z,1026.82
2018-05-06T02:31:30.281Z,1026.77
2018-05-06T02:32:29.826Z,1026.79
2018-05-06T02:33:49.835Z,1026.77
2018-05-06T02:34:50.719Z,1026.72
2018-05-06T02:35:50.149Z,1026.73
2018-05-06T02:36:50.927Z,1026.72
2018-05-06T02:37:50.784Z,1026.75
2018-05-06T02:38:50.164Z,1026.69
2018-05-06T02:39:50.672Z,1026.71
2018-05-06T02:40:50.095Z,1026.71
2018-05-06T02:41:51.167Z,1026.67
2018-05-06T02:42:50.653Z,1026.69
2018-05-06T02:43:50.677Z,1026.69
2018-05-06T02:44:50.609Z,1026.68
2018-05-06T02:45:50.095Z,1026.68
2018-05-06T02:46:50.624Z,1026.72
2018-05-06T02:47:50.864Z,1026.75
2018-05-06T02:48:50.481Z,1026.72
2018-05-06T02:49:50.482Z,1026.70
2018-05-06T02:50:50.107Z,1026.71
2018-05-06T02:51:50.566Z,1026.71
2018-05-06T02:52:49.957Z,1026.70
2018-05-06T02:53:50.433Z,1026.70
2018-05-06T02:54:50.340Z,1026.70
2018-05-06T02:56:51.182Z,1026.69
2018-05-06T02:57:51.687Z,1026.65
2018-05-06T02:58:51.240Z,1026.66
2018-05-06T02:59:52.096Z,1026.64
2018-05-06T03:00:51.639Z,1026.64
2018-05-06T03:01:51.131Z,1026.58
2018-05-06T03:02:51.536Z,1026.58
2018-05-06T03:03:51.134Z,1026.58
2018-05-06T03:04:51.630Z,1026.53
2018-05-06T03:05:51.252Z,1026.57
2018-05-06T03:06:51.743Z,1026.54
2018-05-06T03:07:51.472Z,1026.54
2018-05-06T03:09:11.801Z,1026.53
2018-05-06T03:10:12.661Z,1026.51
2018-05-06T03:11:12.668Z,1026.53
2018-05-06T03:12:12.599Z,1026.49
2018-05-06T03:13:12.506Z,1026.51
2018-05-06T03:14:33.551Z,1026.51
2018-05-06T03:15:33.318Z,1026.48
2018-05-06T03:16:33.484Z,1026.47
2018-05-06T03:17:33.476Z,1026.43
2018-05-06T03:18:33.358Z,1026.46
2018-05-06T03:19:33.476Z,1026.49
2018-05-06T03:20:33.353Z,1026.50
2018-05-06T03:21:33.092Z,1026.43
2018-05-06T03:22:33.673Z,1026.47
2018-05-06T03:23:33.887Z,1026.40
2018-05-06T03:24:34.325Z,1026.44
2018-05-06T03:25:33.489Z,1026.39
2018-05-06T03:26:33.637Z,1026.38
2018-05-06T03:27:33.369Z,1026.35
2018-05-06T03:28:33.580Z,1026.31
2018-05-06T03:29:54.417Z,1026.28
2018-05-06T03:30:55.450Z,1026.30
2018-05-06T03:31:54.873Z,1026.27
2018-05-06T03:32:54.473Z,1026.26
2018-05-06T03:34:15.588Z,1026.29
2018-05-06T03:35:15.979Z,1026.28
2018-05-06T03:36:15.954Z,1026.29
2018-05-06T03:37:15.670Z,1026.31
2018-05-06T03:38:16.255Z,1026.29
2018-05-06T03:39:16.225Z,1026.30
2018-05-06T03:40:15.701Z,1026.29
2018-05-06T03:41:16.361Z,1026.30
2018-05-06T03:42:16.336Z,1026.30
2018-05-06T03:43:15.901Z,1026.29
2018-05-06T03:44:16.932Z,1026.33
2018-05-06T03:45:15.698Z,1026.30
2018-05-06T03:46:16.748Z,1026.31
2018-05-06T03:47:16.265Z,1026.28
2018-05-06T03:48:15.794Z,1026.33
2018-05-06T03:49:16.507Z,1026.33
2018-05-06T03:50:16.040Z,1026.33
2018-05-06T03:51:15.712Z,1026.32
2018-05-06T03:52:16.364Z,1026.34
2018-05-06T03:53:56.860Z,1026.32
2018-05-06T03:54:57.382Z,1026.32
2018-05-06T03:56:07.041Z,1026.32
2018-05-06T03:56:57.857Z,1026.29
2018-05-06T03:57:57.420Z,1026.27
2018-05-06T03:58:56.946Z,1026.27
2018-05-06T03:59:57.642Z,1026.24
2018-05-06T04:00:57.754Z,1026.26
2018-05-06T04:01:57.759Z,1026.28
2018-05-06T04:02:57.353Z,1026.22
2018-05-06T04:03:57.081Z,1026.24
2018-05-06T04:05:20.994Z,1026.21
2018-05-06T04:06:20.578Z,1026.23
2018-05-06T04:07:21.120Z,1026.20
2018-05-06T04:08:41.191Z,1026.20
2018-05-06T04:09:42.440Z,1026.18
2018-05-06T04:10:42.271Z,1026.18
2018-05-06T04:11:41.906Z,1026.16
2018-05-06T04:12:58.196Z,1026.18
2018-05-06T04:13:59.104Z,1026.13
2018-05-06T04:14:58.730Z,1026.16
2018-05-06T04:15:58.712Z,1026.17
2018-05-06T04:16:58.265Z,1026.26
2018-05-06T04:18:19.621Z,1026.27
2018-05-06T04:19:20.609Z,1026.25
2018-05-06T04:20:20.201Z,1026.26
2018-05-06T04:21:20.008Z,1026.24
2018-05-06T04:22:19.806Z,1026.24
2018-05-06T04:23:20.540Z,1026.26
2018-05-06T04:24:20.568Z,1026.29
2018-05-06T04:25:20.179Z,1026.27
2018-05-06T04:26:19.902Z,1026.26
2018-05-06T04:27:20.906Z,1026.25
2018-05-06T04:28:20.868Z,1026.26
2018-05-06T04:29:19.630Z,1026.24
2018-05-06T04:30:20.617Z,1026.25
2018-05-06T04:31:20.434Z,1026.25
2018-05-06T04:32:20.558Z,1026.28
2018-05-06T04:33:20.566Z,1026.29
2018-05-06T04:34:20.601Z,1026.24
2018-05-06T04:35:41.511Z,1026.24
2018-05-06T04:36:41.361Z,1026.30
2018-05-06T04:37:42.456Z,1026.33
2018-05-06T04:38:41.672Z,1026.32
2018-05-06T04:39:41.370Z,1026.34
2018-05-06T04:40:42.015Z,1026.36
2018-05-06T04:41:41.697Z,1026.35
2018-05-06T04:42:41.363Z,1026.39
2018-05-06T04:43:42.069Z,1026.37
2018-05-06T04:44:42.007Z,1026.38
2018-05-06T04:45:41.862Z,1026.44
2018-05-06T04:46:42.174Z,1026.44
2018-05-06T04:47:41.872Z,1026.47
2018-05-06T04:48:42.061Z,1026.47
2018-05-06T04:49:41.733Z,1026.50
2018-05-06T04:51:22.524Z,1026.53
2018-05-06T04:52:22.803Z,1026.51
2018-05-06T04:53:22.909Z,1026.53
2018-05-06T04:54:43.407Z,1026.59
2018-05-06T04:55:44.294Z,1026.57
2018-05-06T04:56:44.874Z,1026.57
2018-05-06T04:57:43.474Z,1026.58
2018-05-06T04:58:44.196Z,1026.57
2018-05-06T04:59:43.780Z,1026.60
2018-05-06T05:00:45.310Z,1026.55
2018-05-06T05:01:44.354Z,1026.58
2018-05-06T05:02:44.564Z,1026.62
2018-05-06T05:04:04.682Z,1026.64
2018-05-06T05:05:05.853Z,1026.64
2018-05-06T05:06:05.656Z,1026.64
2018-05-06T05:07:06.732Z,1026.65
2018-05-06T05:08:05.332Z,1026.67
2018-05-06T05:09:05.258Z,1026.70
2018-05-06T05:10:04.855Z,1026.72
2018-05-06T05:11:05.945Z,1026.73
2018-05-06T05:12:05.060Z,1026.73
2018-05-06T05:13:04.755Z,1026.73
2018-05-06T05:14:05.870Z,1026.77
2018-05-06T05:15:05.788Z,1026.78
2018-05-06T05:16:05.445Z,1026.81
2018-05-06T05:17:05.485Z,1026.83
2018-05-06T05:18:05.403Z,1026.78
2018-05-06T05:19:05.608Z,1026.81
2018-05-06T05:20:05.254Z,1026.79
2018-05-06T05:21:05.057Z,1026.82
2018-05-06T05:22:04.853Z,1026.87
2018-05-06T05:23:06.025Z,1026.83
2018-05-06T05:24:05.168Z,1026.81
2018-05-06T05:25:05.288Z,1026.80
2018-05-06T05:26:05.015Z,1026.82
2018-05-06T05:27:05.097Z,1026.80
2018-05-06T05:28:05.177Z,1026.80
2018-05-06T05:29:05.180Z,1026.75
2018-05-06T05:30:05.322Z,1026.79
2018-05-06T05:31:05.471Z,1026.73
2018-05-06T05:32:05.564Z,1026.74
2018-05-06T05:33:05.589Z,1026.78
2018-05-06T05:34:05.842Z,1026.82
2018-05-06T05:35:05.655Z,1026.80
2018-05-06T05:36:05.521Z,1026.79
2018-05-06T05:37:05.204Z,1026.76
2018-05-06T05:38:04.975Z,1026.79
2018-05-06T05:39:05.066Z,1026.75
2018-05-06T05:40:04.753Z,1026.77
2018-05-06T05:41:05.898Z,1026.85
2018-05-06T05:42:46.745Z,1026.85
2018-05-06T05:43:46.810Z,1026.89
2018-05-06T05:44:46.595Z,1026.86
2018-05-06T05:45:47.182Z,1026.85
2018-05-06T05:46:47.233Z,1026.87
2018-05-06T05:47:46.925Z,1026.93
2018-05-06T05:48:46.621Z,1026.95
2018-05-06T05:49:47.289Z,1026.94
2018-05-06T05:50:47.424Z,1026.92
2018-05-06T05:52:08.682Z,1026.94
2018-05-06T05:53:09.044Z,1026.88
2018-05-06T05:54:09.017Z,1026.89
2018-05-06T05:55:09.226Z,1026.88
2018-05-06T05:56:29.575Z,1026.85
2018-05-06T05:57:30.874Z,1026.80
2018-05-06T05:58:50.576Z,1026.84
2018-05-06T05:59:51.373Z,1026.79
2018-05-06T06:00:51.429Z,1026.78
2018-05-06T06:01:51.596Z,1026.75
2018-05-06T06:02:51.436Z,1026.77
2018-05-06T06:03:51.220Z,1026.78
2018-05-06T06:04:51.888Z,1026.80
2018-05-06T06:05:50.670Z,1026.78
2018-05-06T06:06:51.604Z,1026.80
2018-05-06T06:08:11.751Z,1026.79
2018-05-06T06:09:12.942Z,1026.81
2018-05-06T06:10:12.159Z,1026.83
2018-05-06T06:11:13.019Z,1026.79
2018-05-06T06:12:12.195Z,1026.84
2018-05-06T06:13:12.321Z,1026.84
2018-05-06T06:14:33.757Z,1026.80
2018-05-06T06:15:34.056Z,1026.78
2018-05-06T06:16:34.028Z,1026.77
2018-05-06T06:17:35.143Z,1026.77
2018-05-06T06:18:34.535Z,1026.80
2018-05-06T06:19:33.943Z,1026.76
2018-05-06T06:20:34.233Z,1026.81
2018-05-06T06:21:34.969Z,1026.81
2018-05-06T06:22:34.483Z,1026.83
2018-05-06T06:23:33.812Z,1026.80
2018-05-06T06:24:33.631Z,1026.80
2018-05-06T06:25:33.623Z,1026.83
2018-05-06T06:26:33.719Z,1026.83
2018-05-06T06:27:33.720Z,1026.83
2018-05-06T06:28:33.856Z,1026.88
2018-05-06T06:29:54.660Z,1026.87
2018-05-06T06:30:55.915Z,1026.89
2018-05-06T06:31:54.762Z,1026.88
2018-05-06T06:32:56.102Z,1026.88
2018-05-06T06:33:55.341Z,1026.85
2018-05-06T06:34:55.275Z,1026.91
2018-05-06T06:35:55.459Z,1026.96
2018-05-06T06:36:55.570Z,1026.92
2018-05-06T06:37:55.814Z,1026.92
2018-05-06T06:38:55.260Z,1026.94
2018-05-06T06:39:55.144Z,1026.92
2018-05-06T06:41:16.293Z,1026.91
2018-05-06T06:42:57.613Z,1026.94
2018-05-06T06:43:57.521Z,1026.95
2018-05-06T06:44:57.630Z,1026.94
2018-05-06T06:46:17.934Z,1026.94
2018-05-06T06:47:18.768Z,1027.02
2018-05-06T06:48:20.550Z,1026.95
2018-05-06T06:49:18.799Z,1026.97
2018-05-06T06:50:18.642Z,1027.03
2018-05-06T06:51:39.420Z,1027.06
2018-05-06T06:52:40.273Z,1027.06
2018-05-06T06:53:40.160Z,1027.09
2018-05-06T06:54:39.883Z,1027.11
2018-05-06T06:55:39.760Z,1027.09
2018-05-06T06:57:00.440Z,1027.10
2018-05-06T06:58:21.636Z,1027.13
2018-05-06T06:59:21.537Z,1027.11
2018-05-06T07:00:21.786Z,1027.10
2018-05-06T07:01:21.681Z,1027.11
2018-05-06T07:03:02.966Z,1027.10
2018-05-06T07:04:04.934Z,1027.07
2018-05-06T07:05:03.860Z,1027.05
2018-05-06T07:06:04.174Z,1027.03
2018-05-06T07:07:04.767Z,1027.06
2018-05-06T07:08:03.378Z,1027.00
2018-05-06T07:09:03.387Z,1027.01
2018-05-06T07:10:03.702Z,1026.97
2018-05-06T07:11:03.807Z,1026.99
2018-05-06T07:12:03.698Z,1026.99
2018-05-06T07:13:03.812Z,1027.00
2018-05-06T07:14:03.767Z,1026.99
2018-05-06T07:15:04.137Z,1027.04
2018-05-06T07:16:03.032Z,1027.04
2018-05-06T07:17:05.275Z,1027.03
2018-05-06T07:18:03.400Z,1027.02
2018-05-06T07:19:03.662Z,1027.06
2018-05-06T07:20:03.789Z,1027.12
2018-05-06T07:21:04.057Z,1027.14
2018-05-06T07:22:03.427Z,1027.14
2018-05-06T07:23:23.722Z,1027.16
2018-05-06T07:24:24.628Z,1027.14
2018-05-06T07:25:24.465Z,1027.08
2018-05-06T07:26:24.190Z,1027.12
2018-05-06T07:27:44.741Z,1027.07
2018-05-06T07:28:45.976Z,1027.08
2018-05-06T07:29:44.896Z,1027.05
2018-05-06T07:30:45.162Z,1027.06
2018-05-06T07:31:44.960Z,1027.07
2018-05-06T07:32:45.029Z,1027.04
2018-05-06T07:33:44.890Z,1027.02
2018-05-06T07:34:46.138Z,1027.05
2018-05-06T07:36:27.155Z,1027.08
2018-05-06T07:37:27.392Z,1027.08
2018-05-06T07:38:27.746Z,1027.10
2018-05-06T07:39:28.000Z,1027.11
2018-05-06T07:40:27.892Z,1027.08
2018-05-06T07:41:26.984Z,1027.10
2018-05-06T07:42:27.181Z,1027.09
2018-05-06T07:43:27.480Z,1027.14
2018-05-06T07:44:28.292Z,1027.12
2018-05-06T07:45:27.355Z,1027.10
2018-05-06T07:46:27.763Z,1027.09
2018-05-06T07:47:27.892Z,1027.10
2018-05-06T07:48:48.853Z,1027.08
2018-05-06T07:49:48.863Z,1027.11
2018-05-06T07:50:49.203Z,1027.10
2018-05-06T07:51:49.007Z,1027.07
2018-05-06T07:52:49.305Z,1027.09
2018-05-06T07:53:49.127Z,1027.06
2018-05-06T07:54:48.910Z,1027.05
2018-05-06T07:55:49.225Z,1027.04
2018-05-06T07:56:49.142Z,1027.08
2018-05-06T07:57:49.491Z,1027.07
2018-05-06T07:58:49.431Z,1027.06
2018-05-06T07:59:49.423Z,1027.01
2018-05-06T08:00:49.222Z,1027.00
2018-05-06T08:02:10.054Z,1026.72
2018-05-06T08:03:11.488Z,1027.04
2018-05-06T08:04:10.794Z,1026.93
2018-05-06T08:05:10.718Z,1026.91
2018-05-06T08:06:32.596Z,1026.90
2018-05-06T08:07:32.450Z,1026.86
2018-05-06T08:08:32.651Z,1026.89
2018-05-06T08:09:32.403Z,1026.85
2018-05-06T08:10:32.684Z,1026.85
2018-05-06T08:11:32.447Z,1026.82
2018-05-06T08:12:32.617Z,1026.78
2018-05-06T08:13:31.638Z,1026.84
2018-05-06T08:14:32.965Z,1026.82
2018-05-06T08:15:31.800Z,1026.82
2018-05-06T08:16:32.171Z,1026.84
2018-05-06T08:17:32.534Z,1026.84
2018-05-06T08:18:32.392Z,1026.80
2018-05-06T08:20:35.529Z,1026.78
2018-05-06T08:21:35.600Z,1026.77
2018-05-06T08:22:36.047Z,1026.76
2018-05-06T08:23:57.233Z,1026.75
2018-05-06T08:24:57.004Z,1026.75
2018-05-06T08:26:18.458Z,1026.72
2018-05-06T08:27:19.249Z,1026.75
2018-05-06T08:28:19.207Z,1026.68
2018-05-06T08:29:19.150Z,1026.69
2018-05-06T08:30:19.318Z,1026.73
2018-05-06T08:31:19.501Z,1026.72
2018-05-06T08:32:19.662Z,1026.73
2018-05-06T08:33:18.624Z,1026.68
2018-05-06T08:34:18.491Z,1026.70
2018-05-06T08:35:40.786Z,1026.68
2018-05-06T08:36:41.060Z,1026.67
2018-05-06T08:37:41.017Z,1026.68
2018-05-06T08:38:41.418Z,1026.72
2018-05-06T08:39:41.205Z,1026.71
2018-05-06T08:40:41.601Z,1026.69
2018-05-06T08:41:40.795Z,1026.68
2018-05-06T08:42:41.022Z,1026.67
2018-05-06T08:43:41.280Z,1026.68
2018-05-06T08:44:41.090Z,1026.62
2018-05-06T08:45:41.087Z,1026.67
2018-05-06T08:46:41.386Z,1026.57
2018-05-06T08:47:40.251Z,1026.60
2018-05-06T08:48:41.222Z,1026.60
2018-05-06T08:49:40.726Z,1026.59
2018-05-06T08:50:40.647Z,1026.57
2018-05-06T08:51:40.831Z,1026.59
2018-05-06T08:52:40.871Z,1026.58
2018-05-06T08:53:41.742Z,1026.59
2018-05-06T08:54:41.633Z,1026.63
2018-05-06T08:55:41.113Z,1026.63
2018-05-06T08:56:42.081Z,1026.65
2018-05-06T08:57:42.035Z,1026.63
2018-05-06T08:58:40.935Z,1026.69
2018-05-06T08:59:41.255Z,1026.62
2018-05-06T09:00:40.740Z,1026.66
2018-05-06T09:01:41.065Z,1026.64
2018-05-06T09:02:41.678Z,1026.67
2018-05-06T09:03:40.951Z,1026.70
2018-05-06T09:04:41.272Z,1026.64
2018-05-06T09:05:41.202Z,1026.62
2018-05-06T09:06:42.568Z,1026.64
2018-05-06T09:08:22.812Z,1026.62
2018-05-06T09:09:23.923Z,1026.59
2018-05-06T09:10:24.193Z,1026.61
2018-05-06T09:11:23.400Z,1026.67
2018-05-06T09:12:23.291Z,1026.66
2018-05-06T09:13:23.389Z,1026.63
2018-05-06T09:14:23.339Z,1026.64
2018-05-06T09:15:23.877Z,1026.58
2018-05-06T09:16:23.538Z,1026.58
2018-05-06T09:17:45.514Z,1026.59
2018-05-06T09:18:45.718Z,1026.59
2018-05-06T09:19:48.518Z,1026.61
2018-05-06T09:20:45.528Z,1026.63
2018-05-06T09:22:05.918Z,1026.65
2018-05-06T09:23:06.817Z,1026.63
2018-05-06T09:24:28.463Z,1026.63
2018-05-06T09:25:28.475Z,1026.65
2018-05-06T09:26:28.653Z,1026.68
2018-05-06T09:27:49.044Z,1026.69
2018-05-06T09:29:30.581Z,1026.67
2018-05-06T09:30:31.779Z,1026.70
2018-05-06T09:31:32.150Z,1026.70
2018-05-06T09:32:31.271Z,1026.71
2018-05-06T09:33:32.089Z,1026.76
2018-05-06T09:34:31.367Z,1026.77
2018-05-06T09:35:32.214Z,1026.75
2018-05-06T09:36:31.121Z,1026.74
2018-05-06T09:37:31.359Z,1026.69
2018-05-06T09:38:33.063Z,1026.65
2018-05-06T09:39:31.635Z,1026.71
2018-05-06T09:40:31.067Z,1026.70
2018-05-06T09:41:51.865Z,1026.67
2018-05-06T09:42:52.220Z,1026.65
2018-05-06T09:43:52.443Z,1026.69
2018-05-06T09:44:52.817Z,1026.61
2018-05-06T09:45:53.020Z,1026.63
2018-05-06T09:46:52.420Z,1026.61
2018-05-06T09:47:52.779Z,1026.60
2018-05-06T09:48:52.773Z,1026.60
2018-05-06T09:49:52.670Z,1026.61
2018-05-06T09:50:52.942Z,1026.57
2018-05-06T09:51:52.507Z,1026.55
2018-05-06T09:52:52.517Z,1026.54
2018-05-06T09:53:52.805Z,1026.53
2018-05-06T09:54:52.674Z,1026.49
2018-05-06T09:55:53.345Z,1026.52
2018-05-06T09:56:52.276Z,1026.53
2018-05-06T09:57:52.818Z,1026.46
2018-05-06T09:58:52.736Z,1026.38
2018-05-06T09:59:52.905Z,1026.34
2018-05-06T10:00:52.660Z,1026.38
2018-05-06T10:01:52.915Z,1026.40
2018-05-06T10:02:51.967Z,1026.43
2018-05-06T10:03:51.960Z,1026.38
2018-05-06T10:04:51.789Z,1026.34
2018-05-06T10:05:52.167Z,1026.36
2018-05-06T10:06:52.279Z,1026.34
2018-05-06T10:07:52.775Z,1026.33
2018-05-06T10:08:51.859Z,1026.31
2018-05-06T10:09:52.932Z,1026.34
2018-05-06T10:10:52.751Z,1026.34
2018-05-06T10:12:12.978Z,1026.30
2018-05-06T10:13:13.883Z,1026.32
2018-05-06T10:14:13.295Z,1026.30
2018-05-06T10:15:13.173Z,1026.29
2018-05-06T10:16:13.100Z,1026.27
2018-05-06T10:17:33.864Z,1026.26
2018-05-06T10:18:34.937Z,1026.28
2018-05-06T10:19:33.888Z,1026.30
2018-05-06T10:20:34.009Z,1026.26
2018-05-06T10:21:34.233Z,1026.27
2018-05-06T10:22:34.256Z,1026.22
2018-05-06T10:23:56.973Z,1026.20
2018-05-06T10:24:56.939Z,1026.25
2018-05-06T10:25:57.301Z,1026.22
2018-05-06T10:26:57.627Z,1026.19
2018-05-06T10:27:59.093Z,1026.21
2018-05-06T10:28:58.149Z,1026.16
2018-05-06T10:29:57.439Z,1026.15
2018-05-06T10:31:18.211Z,1026.16
2018-05-06T10:32:41.021Z,1026.17
2018-05-06T10:33:41.236Z,1026.14
2018-05-06T10:34:40.116Z,1026.14
2018-05-06T10:35:40.117Z,1026.08
2018-05-06T10:36:40.183Z,1026.08
2018-05-06T10:37:40.733Z,1026.03
2018-05-06T10:38:40.724Z,1026.08
2018-05-06T10:39:40.984Z,1026.08
2018-05-06T10:40:41.176Z,1026.04
2018-05-06T10:41:41.053Z,1026.02
2018-05-06T10:42:41.409Z,1025.98
2018-05-06T10:43:41.343Z,1025.96
2018-05-06T10:44:42.096Z,1025.97
2018-05-06T10:45:40.901Z,1026.00
2018-05-06T10:46:41.201Z,1025.98
2018-05-06T10:47:40.403Z,1025.93
2018-05-06T10:48:40.785Z,1026.01
2018-05-06T10:49:41.169Z,1025.99
2018-05-06T10:50:40.687Z,1025.96
2018-05-06T10:51:40.707Z,1025.97
2018-05-06T10:52:40.771Z,1025.94
2018-05-06T10:53:40.667Z,1026.01
2018-05-06T10:55:45.091Z,1025.94
2018-05-06T10:56:44.989Z,1025.95
2018-05-06T10:57:45.824Z,1026.03
2018-05-06T10:59:07.366Z,1026.03
2018-05-06T11:00:07.795Z,1026.00
2018-05-06T11:01:07.174Z,1026.02
2018-05-06T11:02:07.418Z,1026.02
2018-05-06T11:03:07.664Z,1026.00
2018-05-06T11:04:07.970Z,1025.97
2018-05-06T11:05:28.042Z,1025.97
2018-05-06T11:06:28.946Z,1025.98
2018-05-06T11:07:28.791Z,1025.93
2018-05-06T11:08:50.331Z,1025.92
2018-05-06T11:09:50.471Z,1025.94
2018-05-06T11:10:49.375Z,1025.93
2018-05-06T11:11:50.600Z,1025.93
2018-05-06T11:13:31.076Z,1025.92
2018-05-06T11:14:51.989Z,1025.91
2018-05-06T11:15:52.075Z,1025.89
2018-05-06T11:16:52.044Z,1025.88
2018-05-06T11:17:52.950Z,1025.85
2018-05-06T11:18:52.370Z,1025.86
2018-05-06T11:19:52.451Z,1025.90
2018-05-06T11:20:52.775Z,1025.86
2018-05-06T11:21:52.224Z,1025.85
2018-05-06T11:22:52.396Z,1025.82
2018-05-06T11:23:52.225Z,1025.79
2018-05-06T11:24:52.419Z,1025.76
2018-05-06T11:25:52.554Z,1025.79
2018-05-06T11:26:52.752Z,1025.81
2018-05-06T11:27:51.597Z,1025.81
2018-05-06T11:28:52.181Z,1025.73
2018-05-06T11:29:52.555Z,1025.78
2018-05-06T11:30:53.921Z,1025.77
2018-05-06T11:31:52.875Z,1025.80
2018-05-06T11:32:51.751Z,1025.79
2018-05-06T11:33:51.610Z,1025.82
2018-05-06T11:34:52.460Z,1025.74
2018-05-06T11:35:52.489Z,1025.73
2018-05-06T11:36:52.334Z,1025.71
2018-05-06T11:37:52.920Z,1025.70
2018-05-06T11:38:51.786Z,1025.68
2018-05-06T11:39:51.744Z,1025.64
2018-05-06T11:40:52.017Z,1025.64
2018-05-06T11:41:57.498Z,1025.66
2018-05-06T11:42:52.204Z,1025.66
2018-05-06T11:43:52.324Z,1025.61
2018-05-06T11:45:21.816Z,1025.63
2018-05-06T11:46:25.257Z,1025.60
2018-05-06T11:47:15.154Z,1025.62
2018-05-06T11:48:15.499Z,1025.62
2018-05-06T11:49:14.871Z,1025.60
2018-05-06T11:50:15.368Z,1025.61
2018-05-06T11:51:14.799Z,1025.63
2018-05-06T11:52:14.899Z,1025.61
2018-05-06T11:53:15.252Z,1025.61
2018-05-06T11:54:14.309Z,1025.64
2018-05-06T11:55:36.495Z,1025.58
2018-05-06T11:56:37.922Z,1025.65
2018-05-06T11:57:37.493Z,1025.61
2018-05-06T11:58:36.660Z,1025.59
2018-05-06T12:00:18.870Z,1025.55
2018-05-06T12:01:19.881Z,1025.52
2018-05-06T12:02:39.920Z,1025.52
2018-05-06T12:03:40.486Z,1025.53
2018-05-06T12:04:40.893Z,1025.57
2018-05-06T12:05:40.364Z,1025.54
2018-05-06T12:06:40.471Z,1025.55
2018-05-06T12:07:41.191Z,1025.53
2018-05-06T12:08:41.286Z,1025.50
2018-05-06T12:09:41.692Z,1025.49
2018-05-06T12:11:02.940Z,1025.51
2018-05-06T12:12:02.929Z,1025.54
2018-05-06T12:13:03.384Z,1025.52
2018-05-06T12:14:03.593Z,1025.44
2018-05-06T12:15:03.922Z,1025.46
2018-05-06T12:16:03.902Z,1025.43
2018-05-06T12:17:03.521Z,1025.47
2018-05-06T12:18:03.816Z,1025.42
2018-05-06T12:19:03.442Z,1025.34
2018-05-06T12:20:04.018Z,1025.39
2018-05-06T12:21:24.874Z,1025.40
2018-05-06T12:22:25.194Z,1025.36
2018-05-06T12:23:26.538Z,1025.30
2018-05-06T12:24:25.560Z,1025.33
2018-05-06T12:25:24.979Z,1025.28
2018-05-06T12:26:47.370Z,1025.27
2018-05-06T12:27:47.950Z,1025.20
2018-05-06T12:28:47.407Z,1025.22
2018-05-06T12:29:47.740Z,1025.23
2018-05-06T12:32:33.125Z,1025.15
2018-05-06T12:33:33.595Z,1025.11
2018-05-06T12:34:34.093Z,1025.08
2018-05-06T12:35:33.767Z,1025.04
2018-05-06T12:36:33.550Z,1025.16
2018-05-06T12:37:33.617Z,1025.15
2018-05-06T12:38:34.082Z,1025.14
2018-05-06T12:39:55.577Z,1025.12
2018-05-06T12:40:55.115Z,1025.19
2018-05-06T12:42:17.607Z,1025.15
2018-05-06T12:43:18.178Z,1025.12
2018-05-06T12:44:18.393Z,1025.20